Langley, WA (98260)

8:28 AM PDT on August 23, 2014 (GMT -0700)
Sunlight Beach | Change Station
CLOSE
Current Station
Personal Weather Station
Location: Clinton, WA
Elevation: 10 ft
Nearby Weather Stations

Elev 10 ft 47.99 °N, 122.48 °W | Updated 6 seconds ago

Clear
Clear
61.8 °F
Feels Like 61.8 °F
N
0.0
Wind Variable Wind from SSW
Gusts 0.0 mph

Today
High -- | Low -- °F
--% Chance of Precip.
Yesterday
High -- | Low -- °F
Precip. -- in
6:15 AM 8:08 PM
Waning Crescent, 3% visible
Pressure 30.15 in
Visibility 10.0 miles
Clouds Clear
Dew Point 60 °F
Humidity 95%
Rainfall 0.00 in
Snow Depth Not available.
UV 1 out of 12
Pollen 3.00 out of 12
PM2.5 Good
Flu Activity Not available.
METAR KPAE 231453Z 11005KT 10SM CLR 16/13 A3016 RMK AO2 SLP210 T01560128 53007

More Conditions Fewer Conditions

Pressure 30.15 in
Visibility 10.0 miles
Clouds Clear
Dew Point 60 °F
Humidity 95%
Rainfall 0.00 in
Snow Depth Not available.
UV 1 out of 12
Pollen 3.00 out of 12
PM2.5 Good
Flu Activity Not available.
METAR KPAE 231453Z 11005KT 10SM CLR 16/13 A3016 RMK AO2 SLP210 T01560128 53007

More Conditions Fewer Conditions

10-Day Weather Forecast

Almanac

Astronomy

Aug. 23, 2014 Rise Set
Actual Time 6:15 AM PDT 8:08 PM PDT
Civil Twilight 5:42 AM PDT 8:41 PM PDT
Nautical Twilight 5:01 AM PDT 9:21 PM PDT
Astronomical Twilight 4:16 AM PDT 10:06 PM PDT
Moon 4:34 AM PDT 6:56 PM PDT
Length of Visible Light 14h 58m
Length of Day
13h 52m
Tomorrow will be 3m 17s shorter.
Waning Crescent, 3% of the Moon is Illuminated
Today
Waning Crescent
Aug 25
New
Sep 2
First Quarter
Sep 8
Full
Sep 15
Last Quarter

Today's Extremes

State Highs State Lows

Community

WunderPhotos

Upload Photos

1,746,495 photos uploaded!

WunderBlogs® & News

By Dr. Jeff Masters
Director of Meteorology, Weather Underground
By Kari Strenfel
Meteorologist, Weather Underground
By Christopher C. Burt
Weather Historian, Weather Underground
August 23, 2014
August 23, 2014
August 23, 2014

Nearby

Air Quality

  Air Quality AQ Index Pollutant
Yesterday Good
PM2.5
Current Good
PM2.5

Snow Depth

Station Depth Elevation
Dungeness 0 in 4100 ft
Mount Crag 0 in 4050 ft
Alpine Meadows 0 in 3500 ft
Elbow Lake 0 in 3200 ft
Wells Creek 2 in 4200 ft

Earthquake Activity

City Distance Mag. Time & Date
No recent earthquake activity has been reported nearby.
Minimum magnitude displayed is 2.5.

Coastal Water Temperatures

Place Temperature
Port Townsend, WA 52.0 °F
Friday Harbor, WA 54.0 °F
Port Angeles, WA 53.1 °F

Nearby Weather Stations